sensor_id;sensor_type;location;lat;lon;timestamp;pressure;altitude;pressure_sealevel;temperature;humidity
76416;BME280;65248;55.686;37.678;2023-01-05T00:00:25;99009.97;;;-3.08;84.88
76416;BME280;65248;55.686;37.678;2023-01-05T00:02:51;98980.81;;;-3.32;85.80
76416;BME280;65248;55.686;37.678;2023-01-05T00:05:16;99009.88;;;-3.16;85.49
76416;BME280;65248;55.686;37.678;2023-01-05T00:07:41;99008.38;;;-3.28;85.59
76416;BME280;65248;55.686;37.678;2023-01-05T00:10:07;98999.81;;;-3.30;85.64
76416;BME280;65248;55.686;37.678;2023-01-05T00:12:53;98942.72;;;-3.64;85.56
76416;BME280;65248;55.686;37.678;2023-01-05T00:15:37;98966.94;;;-3.42;85.69
76416;BME280;65248;55.686;37.678;2023-01-05T00:18:21;99056.03;;;-3.06;85.09
76416;BME280;65248;55.686;37.678;2023-01-05T00:21:14;99024.59;;;-3.15;85.92
76416;BME280;65248;55.686;37.678;2023-01-05T00:23:58;99041.94;;;-3.05;85.57
76416;BME280;65248;55.686;37.678;2023-01-05T00:26:24;99046.66;;;-3.08;85.46
76416;BME280;65248;55.686;37.678;2023-01-05T00:28:49;98979.72;;;-3.39;86.01
76416;BME280;65248;55.686;37.678;2023-01-05T00:31:14;99029.63;;;-3.22;86.06
76416;BME280;65248;55.686;37.678;2023-01-05T00:33:40;98993.59;;;-3.20;85.63
76416;BME280;65248;55.686;37.678;2023-01-05T00:36:09;99036.19;;;-3.08;85.91
76416;BME280;65248;55.686;37.678;2023-01-05T00:38:34;99023.06;;;-3.08;85.80
76416;BME280;65248;55.686;37.678;2023-01-05T00:41:00;99036.88;;;-3.06;86.25
76416;BME280;65248;55.686;37.678;2023-01-05T00:43:25;99030.44;;;-3.21;86.09
76416;BME280;65248;55.686;37.678;2023-01-05T00:45:51;98991.56;;;-3.35;86.20
76416;BME280;65248;55.686;37.678;2023-01-05T00:48:16;99001.63;;;-3.31;85.80
76416;BME280;65248;55.686;37.678;2023-01-05T00:50:42;99026.97;;;-3.12;86.51
76416;BME280;65248;55.686;37.678;2023-01-05T00:53:07;98999.00;;;-3.31;86.27
76416;BME280;65248;55.686;37.678;2023-01-05T00:55:33;99022.69;;;-3.13;87.01
76416;BME280;65248;55.686;37.678;2023-01-05T00:57:58;99038.97;;;-3.19;85.96
76416;BME280;65248;55.686;37.678;2023-01-05T01:00:23;99022.69;;;-3.13;86.82
76416;BME280;65248;55.686;37.678;2023-01-05T01:02:50;99003.63;;;-3.15;86.79
76416;BME280;65248;55.686;37.678;2023-01-05T01:05:17;98946.16;;;-3.54;86.73
76416;BME280;65248;55.686;37.678;2023-01-05T01:07:42;98978.63;;;-3.47;87.39
76416;BME280;65248;55.686;37.678;2023-01-05T01:10:09;99012.94;;;-3.30;88.66
76416;BME280;65248;55.686;37.678;2023-01-05T01:12:35;99021.34;;;-3.36;89.20
76416;BME280;65248;55.686;37.678;2023-01-05T01:15:00;99005.63;;;-3.36;90.84
76416;BME280;65248;55.686;37.678;2023-01-05T01:17:25;99017.41;;;-3.60;90.56
76416;BME280;65248;55.686;37.678;2023-01-05T01:19:51;99012.06;;;-3.87;92.24
76416;BME280;65248;55.686;37.678;2023-01-05T01:22:16;98958.34;;;-4.30;92.85
76416;BME280;65248;55.686;37.678;2023-01-05T01:24:42;98949.84;;;-4.32;93.63
76416;BME280;65248;55.686;37.678;2023-01-05T01:27:07;99007.13;;;-3.90;93.46
76416;BME280;65248;55.686;37.678;2023-01-05T01:29:33;99012.78;;;-3.85;93.53
76416;BME280;65248;55.686;37.678;2023-01-05T01:31:58;98985.63;;;-3.84;93.04
76416;BME280;65248;55.686;37.678;2023-01-05T01:34:24;98943.22;;;-4.16;92.50
76416;BME280;65248;55.686;37.678;2023-01-05T01:36:49;98978.72;;;-3.85;92.09
76416;BME280;65248;55.686;37.678;2023-01-05T01:39:15;99005.59;;;-3.64;92.31
76416;BME280;65248;55.686;37.678;2023-01-05T01:41:41;98976.78;;;-3.83;91.27
76416;BME280;65248;55.686;37.678;2023-01-05T01:47:14;98934.94;;;-4.02;92.94
76416;BME280;65248;55.686;37.678;2023-01-05T01:49:41;99009.03;;;-3.63;92.23
76416;BME280;65248;55.686;37.678;2023-01-05T01:52:07;99013.72;;;-3.76;93.70
76416;BME280;65248;55.686;37.678;2023-01-05T01:54:33;98958.09;;;-4.26;94.07
76416;BME280;65248;55.686;37.678;2023-01-05T01:56:59;98947.34;;;-4.33;94.28
76416;BME280;65248;55.686;37.678;2023-01-05T01:59:26;99011.53;;;-4.00;93.50
76416;BME280;65248;55.686;37.678;2023-01-05T02:01:53;98998.59;;;-4.02;92.63
76416;BME280;65248;55.686;37.678;2023-01-05T02:04:23;98921.19;;;-4.62;92.13
76416;BME280;65248;55.686;37.678;2023-01-05T02:06:49;98932.22;;;-4.49;92.37
76416;BME280;65248;55.686;37.678;2023-01-05T02:09:16;98944.63;;;-4.41;91.35
76416;BME280;65248;55.686;37.678;2023-01-05T02:14:43;98998.03;;;-4.05;91.07
76416;BME280;65248;55.686;37.678;2023-01-05T02:36:18;98947.47;;;-4.35;87.58
76416;BME280;65248;55.686;37.678;2023-01-05T02:38:56;98983.72;;;-4.11;88.06
76416;BME280;65248;55.686;37.678;2023-01-05T02:41:37;98945.03;;;-4.26;87.52
76416;BME280;65248;55.686;37.678;2023-01-05T02:44:07;98952.16;;;-4.29;87.60
76416;BME280;65248;55.686;37.678;2023-01-05T02:46:33;98940.75;;;-4.18;87.79
76416;BME280;65248;55.686;37.678;2023-01-05T02:48:59;98954.09;;;-4.11;88.11
76416;BME280;65248;55.686;37.678;2023-01-05T02:51:38;98866.97;;;-4.60;88.39
76416;BME280;65248;55.686;37.678;2023-01-05T02:56:52;98917.06;;;-4.16;87.94
76416;BME280;65248;55.686;37.678;2023-01-05T02:59:26;98957.13;;;-3.97;86.99
76416;BME280;65248;55.686;37.678;2023-01-05T03:02:23;98970.63;;;-4.01;85.13
76416;BME280;65248;55.686;37.678;2023-01-05T03:05:15;98949.00;;;-4.13;84.44
76416;BME280;65248;55.686;37.678;2023-01-05T03:07:45;98955.88;;;-4.02;82.70
76416;BME280;65248;55.686;37.678;2023-01-05T03:10:13;98911.44;;;-4.41;81.30
76416;BME280;65248;55.686;37.678;2023-01-05T03:13:03;98937.59;;;-4.41;80.50
76416;BME280;65248;55.686;37.678;2023-01-05T03:15:49;98959.19;;;-4.29;79.67
76416;BME280;65248;55.686;37.678;2023-01-05T03:18:24;98944.44;;;-4.40;80.03
76416;BME280;65248;55.686;37.678;2023-01-05T03:20:52;98956.56;;;-4.29;80.01
76416;BME280;65248;55.686;37.678;2023-01-05T03:23:19;98955.47;;;-4.26;80.56
76416;BME280;65248;55.686;37.678;2023-01-05T03:26:06;98923.69;;;-4.41;80.10
76416;BME280;65248;55.686;37.678;2023-01-05T03:28:54;98941.69;;;-4.29;79.99
76416;BME280;65248;55.686;37.678;2023-01-05T03:31:50;98960.97;;;-4.30;80.21
76416;BME280;65248;55.686;37.678;2023-01-05T03:34:52;98875.50;;;-4.77;79.83
76416;BME280;65248;55.686;37.678;2023-01-05T03:37:56;98904.81;;;-4.64;80.63
76416;BME280;65248;55.686;37.678;2023-01-05T03:40:30;98941.84;;;-4.40;81.07
76416;BME280;65248;55.686;37.678;2023-01-05T03:42:57;98934.16;;;-4.32;80.06
76416;BME280;65248;55.686;37.678;2023-01-05T03:45:23;98884.19;;;-4.67;79.71
76416;BME280;65248;55.686;37.678;2023-01-05T03:47:51;98920.09;;;-4.50;80.23
76416;BME280;65248;55.686;37.678;2023-01-05T03:50:16;98940.75;;;-4.37;81.03
76416;BME280;65248;55.686;37.678;2023-01-05T03:52:42;98924.22;;;-4.38;81.01
76416;BME280;65248;55.686;37.678;2023-01-05T03:55:08;98898.91;;;-4.47;81.04
76416;BME280;65248;55.686;37.678;2023-01-05T03:57:34;98869.16;;;-4.65;80.57
76416;BME280;65248;55.686;37.678;2023-01-05T03:59:59;98928.34;;;-4.45;80.33
76416;BME280;65248;55.686;37.678;2023-01-05T04:02:25;98886.09;;;-4.69;80.60
76416;BME280;65248;55.686;37.678;2023-01-05T04:04:50;98894.22;;;-4.53;79.58
76416;BME280;65248;55.686;37.678;2023-01-05T04:07:16;98896.44;;;-4.77;78.71
76416;BME280;65248;55.686;37.678;2023-01-05T04:09:41;98920.22;;;-4.61;78.55
76416;BME280;65248;55.686;37.678;2023-01-05T04:12:07;98923.94;;;-4.54;78.77
76416;BME280;65248;55.686;37.678;2023-01-05T04:14:32;98932.22;;;-4.49;78.21
76416;BME280;65248;55.686;37.678;2023-01-05T04:16:58;98855.41;;;-4.86;77.90
76416;BME280;65248;55.686;37.678;2023-01-05T04:19:23;98935.25;;;-4.44;78.11
76416;BME280;65248;55.686;37.678;2023-01-05T04:21:49;98927.81;;;-4.48;78.16
76416;BME280;65248;55.686;37.678;2023-01-05T04:24:14;98852.13;;;-4.88;77.96
76416;BME280;65248;55.686;37.678;2023-01-05T04:26:40;98924.22;;;-4.47;78.37
76416;BME280;65248;55.686;37.678;2023-01-05T04:29:08;98918.16;;;-4.48;77.55
76416;BME280;65248;55.686;37.678;2023-01-05T04:31:33;98841.25;;;-4.84;78.10
76416;BME280;65248;55.686;37.678;2023-01-05T04:33:59;98921.19;;;-4.43;78.65
76416;BME280;65248;55.686;37.678;2023-01-05T04:36:24;98878.38;;;-4.61;78.15
76416;BME280;65248;55.686;37.678;2023-01-05T04:38:50;98851.16;;;-4.68;78.61
76416;BME280;65248;55.686;37.678;2023-01-05T04:41:15;98794.59;;;-5.27;78.11
76416;BME280;65248;55.686;37.678;2023-01-05T04:43:41;98819.63;;;-4.95;78.32
76416;BME280;65248;55.686;37.678;2023-01-05T04:46:07;98909.38;;;-4.47;78.27
76416;BME280;65248;55.686;37.678;2023-01-05T04:48:32;98844.53;;;-4.91;78.43
76416;BME280;65248;55.686;37.678;2023-01-05T04:50:58;98868.91;;;-4.72;77.61
76416;BME280;65248;55.686;37.678;2023-01-05T04:53:24;98890.38;;;-4.58;76.99
76416;BME280;65248;55.686;37.678;2023-01-05T04:55:50;98908.53;;;-4.57;76.57
76416;BME280;65248;55.686;37.678;2023-01-05T04:58:16;98883.19;;;-4.76;77.81
76416;BME280;65248;55.686;37.678;2023-01-05T05:00:42;98820.47;;;-5.04;76.99
76416;BME280;65248;55.686;37.678;2023-01-05T05:03:07;98899.16;;;-4.59;77.40
76416;BME280;65248;55.686;37.678;2023-01-05T05:05:33;98884.03;;;-4.75;76.59
76416;BME280;65248;55.686;37.678;2023-01-05T05:07:59;98875.78;;;-4.80;76.55
76416;BME280;65248;55.686;37.678;2023-01-05T05:10:24;98875.50;;;-4.77;76.30
76416;BME280;65248;55.686;37.678;2023-01-05T05:12:50;98852.38;;;-4.91;76.73
76416;BME280;65248;55.686;37.678;2023-01-05T05:15:15;98897.50;;;-4.60;74.75
76416;BME280;65248;55.686;37.678;2023-01-05T05:17:41;98893.69;;;-4.56;75.80
76416;BME280;65248;55.686;37.678;2023-01-05T05:20:07;98803.13;;;-5.05;76.25
76416;BME280;65248;55.686;37.678;2023-01-05T05:22:32;98867.25;;;-4.63;76.60
76416;BME280;65248;55.686;37.678;2023-01-05T05:24:58;98871.66;;;-4.73;75.41
76416;BME280;65248;55.686;37.678;2023-01-05T05:27:23;98855.97;;;-4.73;75.54
76416;BME280;65248;55.686;37.678;2023-01-05T05:29:49;98887.75;;;-4.68;76.24
76416;BME280;65248;55.686;37.678;2023-01-05T05:32:14;98890.91;;;-4.55;76.67
76416;BME280;65248;55.686;37.678;2023-01-05T05:34:40;98783.06;;;-5.15;76.88
76416;BME280;65248;55.686;37.678;2023-01-05T05:37:05;98859.53;;;-4.64;75.82
76416;BME280;65248;55.686;37.678;2023-01-05T05:39:31;98867.94;;;-4.80;74.27
76416;BME280;65248;55.686;37.678;2023-01-05T05:41:56;98846.31;;;-5.01;74.77
76416;BME280;65248;55.686;37.678;2023-01-05T05:44:22;98874.41;;;-4.84;76.38
76416;BME280;65248;55.686;37.678;2023-01-05T05:46:47;98851.69;;;-4.93;77.56
76416;BME280;65248;55.686;37.678;2023-01-05T05:49:13;98879.91;;;-4.78;76.19
76416;BME280;65248;55.686;37.678;2023-01-05T05:51:38;98797.06;;;-5.16;76.95
76416;BME280;65248;55.686;37.678;2023-01-05T05:54:04;98870.81;;;-4.83;76.46
76416;BME280;65248;55.686;37.678;2023-01-05T05:56:30;98861.47;;;-4.76;76.58
76416;BME280;65248;55.686;37.678;2023-01-05T05:58:55;98848.25;;;-4.65;77.95
76416;BME280;65248;55.686;37.678;2023-01-05T06:01:22;98886.22;;;-4.22;80.62
76416;BME280;65248;55.686;37.678;2023-01-05T06:03:47;98889.13;;;-4.25;80.19
76416;BME280;65248;55.686;37.678;2023-01-05T06:06:13;98893.38;;;-4.24;80.83
76416;BME280;65248;55.686;37.678;2023-01-05T06:08:38;98882.09;;;-4.35;79.49
76416;BME280;65248;55.686;37.678;2023-01-05T06:11:04;98880.44;;;-4.16;79.96
76416;BME280;65248;55.686;37.678;2023-01-05T06:13:29;98810.25;;;-4.50;80.60
76416;BME280;65248;55.686;37.678;2023-01-05T06:15:55;98860.59;;;-4.19;78.33
76416;BME280;65248;55.686;37.678;2023-01-05T06:18:20;98783.75;;;-4.84;78.41
76416;BME280;65248;55.686;37.678;2023-01-05T06:20:46;98854.03;;;-4.52;79.53
76416;BME280;65248;55.686;37.678;2023-01-05T06:23:11;98847.97;;;-4.43;79.26
76416;BME280;65248;55.686;37.678;2023-01-05T06:25:37;98850.72;;;-4.44;78.94
76416;BME280;65248;55.686;37.678;2023-01-05T06:28:02;98864.59;;;-4.24;78.40
76416;BME280;65248;55.686;37.678;2023-01-05T06:30:28;98839.72;;;-4.57;78.08
76416;BME280;65248;55.686;37.678;2023-01-05T06:32:53;98870.97;;;-4.37;78.81
76416;BME280;65248;55.686;37.678;2023-01-05T06:35:19;98842.59;;;-4.32;78.54
76416;BME280;65248;55.686;37.678;2023-01-05T06:37:44;98816.88;;;-4.46;77.21
76416;BME280;65248;55.686;37.678;2023-01-05T06:40:10;98814.53;;;-4.49;76.94
76416;BME280;65248;55.686;37.678;2023-01-05T06:42:37;98847.13;;;-4.43;76.83
76416;BME280;65248;55.686;37.678;2023-01-05T06:45:04;98850.16;;;-4.38;77.29
76416;BME280;65248;55.686;37.678;2023-01-05T06:47:29;98848.22;;;-4.26;76.10
76416;BME280;65248;55.686;37.678;2023-01-05T06:49:55;98864.44;;;-4.13;76.72
76416;BME280;65248;55.686;37.678;2023-01-05T06:52:21;98872.31;;;-4.33;75.63
76416;BME280;65248;55.686;37.678;2023-01-05T06:54:46;98876.03;;;-4.25;75.76
76416;BME280;65248;55.686;37.678;2023-01-05T06:57:12;98857.47;;;-4.51;76.29
76416;BME280;65248;55.686;37.678;2023-01-05T06:59:38;98866.22;;;-4.14;76.12
76416;BME280;65248;55.686;37.678;2023-01-05T07:02:04;98810.66;;;-4.45;76.47
76416;BME280;65248;55.686;37.678;2023-01-05T07:04:29;98832.38;;;-4.15;76.83
76416;BME280;65248;55.686;37.678;2023-01-05T07:06:55;98856.16;;;-3.99;76.71
76416;BME280;65248;55.686;37.678;2023-01-05T07:09:20;98833.50;;;-4.37;75.43
76416;BME280;65248;55.686;37.678;2023-01-05T07:11:45;98870.03;;;-3.99;77.24
76416;BME280;65248;55.686;37.678;2023-01-05T07:14:11;98858.09;;;-4.01;77.49
76416;BME280;65248;55.686;37.678;2023-01-05T07:16:36;98821.56;;;-4.03;76.90
76416;BME280;65248;55.686;37.678;2023-01-05T07:19:02;98861.59;;;-3.73;76.33
76416;BME280;65248;55.686;37.678;2023-01-05T07:21:27;98863.25;;;-3.82;75.75
76416;BME280;65248;55.686;37.678;2023-01-05T07:23:53;98868.97;;;-3.59;76.60
76416;BME280;65248;55.686;37.678;2023-01-05T07:26:19;98819.22;;;-3.96;77.16
76416;BME280;65248;55.686;37.678;2023-01-05T07:28:44;98813.41;;;-3.90;76.65
76416;BME280;65248;55.686;37.678;2023-01-05T07:31:09;98852.13;;;-3.57;76.42
76416;BME280;65248;55.686;37.678;2023-01-05T07:33:36;98866.56;;;-3.43;76.23
76416;BME280;65248;55.686;37.678;2023-01-05T07:36:02;98821.91;;;-3.78;77.02
76416;BME280;65248;55.686;37.678;2023-01-05T07:38:28;98868.22;;;-3.42;76.24
76416;BME280;65248;55.686;37.678;2023-01-05T07:40:58;98848.16;;;-3.61;75.31
76416;BME280;65248;55.686;37.678;2023-01-05T07:43:24;98872.44;;;-3.41;75.08
76416;BME280;65248;55.686;37.678;2023-01-05T07:45:49;98853.72;;;-3.46;75.63
76416;BME280;65248;55.686;37.678;2023-01-05T07:48:14;98831.78;;;-3.63;75.73
76416;BME280;65248;55.686;37.678;2023-01-05T07:50:40;98846.59;;;-3.54;75.81
76416;BME280;65248;55.686;37.678;2023-01-05T07:53:05;98831.72;;;-3.53;76.44
76416;BME280;65248;55.686;37.678;2023-01-05T07:55:31;98849.03;;;-3.42;74.11
76416;BME280;65248;55.686;37.678;2023-01-05T07:57:56;98858.88;;;-3.27;74.62
76416;BME280;65248;55.686;37.678;2023-01-05T08:00:22;98819.53;;;-3.45;75.81
76416;BME280;65248;55.686;37.678;2023-01-05T08:02:47;98867.97;;;-3.04;76.10
76416;BME280;65248;55.686;37.678;2023-01-05T08:05:13;98861.72;;;-3.20;74.13
76416;BME280;65248;55.686;37.678;2023-01-05T08:07:38;98844.84;;;-3.08;75.34
76416;BME280;65248;55.686;37.678;2023-01-05T08:10:04;98841.25;;;-3.07;74.83
76416;BME280;65248;55.686;37.678;2023-01-05T08:12:48;98843.69;;;-3.06;74.26
76416;BME280;65248;55.686;37.678;2023-01-05T08:15:32;98768.00;;;-3.71;74.62
76416;BME280;65248;55.686;37.678;2023-01-05T08:17:58;98840.09;;;-3.22;74.92
76416;BME280;65248;55.686;37.678;2023-01-05T08:20:23;98797.81;;;-3.55;73.77
76416;BME280;65248;55.686;37.678;2023-01-05T08:22:50;98810.78;;;-3.53;72.93
76416;BME280;65248;55.686;37.678;2023-01-05T08:25:16;98828.28;;;-3.09;74.95
76416;BME280;65248;55.686;37.678;2023-01-05T08:27:41;98812.81;;;-3.29;73.14
76416;BME280;65248;55.686;37.678;2023-01-05T08:30:07;98856.00;;;-3.06;73.18
76416;BME280;65248;55.686;37.678;2023-01-05T08:32:33;98848.53;;;-3.01;74.51
76416;BME280;65248;55.686;37.678;2023-01-05T08:34:58;98671.69;;;-4.22;73.58
76416;BME280;65248;55.686;37.678;2023-01-05T08:37:24;98792.25;;;-3.42;73.09
76416;BME280;65248;55.686;37.678;2023-01-05T08:39:49;98840.66;;;-3.01;73.85
76416;BME280;65248;55.686;37.678;2023-01-05T08:42:15;98769.06;;;-3.47;72.45
76416;BME280;65248;55.686;37.678;2023-01-05T08:44:40;98825.22;;;-3.22;73.28
76416;BME280;65248;55.686;37.678;2023-01-05T08:47:06;98781.25;;;-3.28;74.55
76416;BME280;65248;55.686;37.678;2023-01-05T08:49:31;98823.28;;;-3.02;73.75
76416;BME280;65248;55.686;37.678;2023-01-05T08:51:56;98837.56;;;-2.79;74.23
76416;BME280;65248;55.686;37.678;2023-01-05T08:54:22;98820.22;;;-2.80;72.68
76416;BME280;65248;55.686;37.678;2023-01-05T08:56:47;98773.97;;;-3.79;72.18
76416;BME280;65248;55.686;37.678;2023-01-05T08:59:15;98820.88;;;-3.40;73.58
76416;BME280;65248;55.686;37.678;2023-01-05T09:01:40;98830.06;;;-3.09;73.31
76416;BME280;65248;55.686;37.678;2023-01-05T09:04:06;98825.91;;;-3.02;71.80
76416;BME280;65248;55.686;37.678;2023-01-05T09:06:32;98804.63;;;-2.99;72.20
76416;BME280;65248;55.686;37.678;2023-01-05T09:08:58;98820.81;;;-2.86;72.12
76416;BME280;65248;55.686;37.678;2023-01-05T09:11:24;98810.91;;;-2.92;72.87
76416;BME280;65248;55.686;37.678;2023-01-05T09:13:57;98812.56;;;-2.91;72.45
76416;BME280;65248;55.686;37.678;2023-01-05T09:16:25;98813.59;;;-2.84;72.59
76416;BME280;65248;55.686;37.678;2023-01-05T09:18:51;98708.19;;;-3.49;73.80
76416;BME280;65248;55.686;37.678;2023-01-05T09:21:17;98794.00;;;-2.80;72.72
76416;BME280;65248;55.686;37.678;2023-01-05T09:23:43;98743.19;;;-3.50;71.45
76416;BME280;65248;55.686;37.678;2023-01-05T09:26:10;98804.25;;;-3.22;73.46
76416;BME280;65248;55.686;37.678;2023-01-05T09:28:36;98799.38;;;-3.17;72.72
76416;BME280;65248;55.686;37.678;2023-01-05T09:31:13;98797.34;;;-3.23;72.76
76416;BME280;65248;55.686;37.678;2023-01-05T09:33:39;98762.66;;;-3.34;73.83
76416;BME280;65248;55.686;37.678;2023-01-05T09:36:06;98799.41;;;-3.26;73.08
76416;BME280;65248;55.686;37.678;2023-01-05T09:38:32;98806.19;;;-3.24;73.86
76416;BME280;65248;55.686;37.678;2023-01-05T09:41:03;98797.78;;;-3.27;74.79
76416;BME280;65248;55.686;37.678;2023-01-05T09:43:36;98793.91;;;-3.51;74.72
76416;BME280;65248;55.686;37.678;2023-01-05T09:46:09;98792.19;;;-3.60;74.01
76416;BME280;65248;55.686;37.678;2023-01-05T09:48:39;98792.56;;;-3.55;73.88
76416;BME280;65248;55.686;37.678;2023-01-05T09:51:07;98669.31;;;-4.43;75.00
76416;BME280;65248;55.686;37.678;2023-01-05T09:53:33;98784.81;;;-4.01;75.83
76416;BME280;65248;55.686;37.678;2023-01-05T09:55:59;98735.81;;;-4.18;75.86
76416;BME280;65248;55.686;37.678;2023-01-05T09:58:34;98771.41;;;-3.98;75.86
76416;BME280;65248;55.686;37.678;2023-01-05T10:01:04;98775.59;;;-4.05;76.16
76416;BME280;65248;55.686;37.678;2023-01-05T10:03:30;98753.28;;;-4.56;75.43
76416;BME280;65248;55.686;37.678;2023-01-05T10:05:57;98703.44;;;-5.01;76.07
76416;BME280;65248;55.686;37.678;2023-01-05T10:08:36;98747.53;;;-4.69;76.72
76416;BME280;65248;55.686;37.678;2023-01-05T10:11:19;98772.31;;;-4.73;75.14
76416;BME280;65248;55.686;37.678;2023-01-05T10:14:17;98726.13;;;-4.82;74.24
76416;BME280;65248;55.686;37.678;2023-01-05T10:16:45;98766.41;;;-4.75;75.05
76416;BME280;65248;55.686;37.678;2023-01-05T10:19:17;98690.91;;;-4.97;74.03
76416;BME280;65248;55.686;37.678;2023-01-05T10:27:22;98770.63;;;-4.55;74.79
76416;BME280;65248;55.686;37.678;2023-01-05T10:30:20;98771.19;;;-4.61;74.50
76416;BME280;65248;55.686;37.678;2023-01-05T10:32:58;98735.16;;;-4.67;73.31
76416;BME280;65248;55.686;37.678;2023-01-05T10:44:46;98773.41;;;-4.66;73.51
76416;BME280;65248;55.686;37.678;2023-01-05T10:46:47;98773.66;;;-4.59;73.79
76416;BME280;65248;55.686;37.678;2023-01-05T10:49:33;98752.81;;;-4.88;72.75
76416;BME280;65248;55.686;37.678;2023-01-05T10:52:00;98772.16;;;-4.62;72.36
76416;BME280;65248;55.686;37.678;2023-01-05T10:54:38;98771.59;;;-4.56;72.47
76416;BME280;65248;55.686;37.678;2023-01-05T11:00:14;98775.72;;;-4.53;72.15
76416;BME280;65248;55.686;37.678;2023-01-05T11:03:00;98750.84;;;-4.67;72.39
76416;BME280;65248;55.686;37.678;2023-01-05T11:05:34;98748.22;;;-4.77;72.30
76416;BME280;65248;55.686;37.678;2023-01-05T11:08:06;98761.88;;;-4.73;71.65
76416;BME280;65248;55.686;37.678;2023-01-05T11:10:40;98778.09;;;-4.79;71.55
76416;BME280;65248;55.686;37.678;2023-01-05T11:15:52;98748.97;;;-5.03;73.11
76416;BME280;65248;55.686;37.678;2023-01-05T11:21:26;98707.69;;;-5.67;71.78
76416;BME280;65248;55.686;37.678;2023-01-05T11:23:56;98767.94;;;-5.01;71.23
76416;BME280;65248;55.686;37.678;2023-01-05T11:26:27;98775.34;;;-4.97;71.98
76416;BME280;65248;55.686;37.678;2023-01-05T11:31:36;98773.03;;;-5.09;71.86
76416;BME280;65248;55.686;37.678;2023-01-05T11:34:11;98776.59;;;-5.10;71.97
76416;BME280;65248;55.686;37.678;2023-01-05T11:36:38;98767.50;;;-5.26;71.02
76416;BME280;65248;55.686;37.678;2023-01-05T11:39:04;98753.63;;;-4.97;72.81
76416;BME280;65248;55.686;37.678;2023-01-05T11:41:30;98770.00;;;-4.95;70.31
76416;BME280;65248;55.686;37.678;2023-01-05T11:43:56;98763.81;;;-5.04;69.75
76416;BME280;65248;55.686;37.678;2023-01-05T11:46:25;98758.84;;;-5.07;71.24
76416;BME280;65248;55.686;37.678;2023-01-05T11:49:03;98730.53;;;-5.31;71.15
76416;BME280;65248;55.686;37.678;2023-01-05T11:51:37;98764.06;;;-5.07;69.51
76416;BME280;65248;55.686;37.678;2023-01-05T11:54:04;98715.41;;;-5.37;68.92
76416;BME280;65248;55.686;37.678;2023-01-05T11:56:31;98698.38;;;-5.50;68.47
76416;BME280;65248;55.686;37.678;2023-01-05T11:58:57;98770.13;;;-5.06;69.68
76416;BME280;65248;55.686;37.678;2023-01-05T12:01:44;98772.31;;;-5.11;68.58
76416;BME280;65248;55.686;37.678;2023-01-05T12:15:11;98767.38;;;-5.34;69.20
76416;BME280;65248;55.686;37.678;2023-01-05T12:26:14;98761.13;;;-5.71;69.80
76416;BME280;65248;55.686;37.678;2023-01-05T12:52:51;98755.22;;;-6.53;71.92
76416;BME280;65248;55.686;37.678;2023-01-05T12:55:27;98768.50;;;-6.56;72.26
76416;BME280;65248;55.686;37.678;2023-01-05T12:58:00;98732.53;;;-7.04;71.71
76416;BME280;65248;55.686;37.678;2023-01-05T13:00:32;98709.75;;;-7.11;71.87
76416;BME280;65248;55.686;37.678;2023-01-05T13:03:06;98779.69;;;-6.86;72.45
76416;BME280;65248;55.686;37.678;2023-01-05T13:05:42;98792.81;;;-6.88;72.24
76416;BME280;65248;55.686;37.678;2023-01-05T13:11:36;98787.47;;;-7.07;73.08
76416;BME280;65248;55.686;37.678;2023-01-05T13:14:05;98784.38;;;-7.01;72.36
76416;BME280;65248;55.686;37.678;2023-01-05T13:16:42;98800.38;;;-7.05;72.88
76416;BME280;65248;55.686;37.678;2023-01-05T13:19:36;98725.44;;;-7.34;74.02
76416;BME280;65248;55.686;37.678;2023-01-05T13:22:13;98790.38;;;-6.89;73.63
76416;BME280;65248;55.686;37.678;2023-01-05T13:25:00;98788.41;;;-7.08;74.99
76416;BME280;65248;55.686;37.678;2023-01-05T13:27:27;98796.22;;;-7.08;74.84
76416;BME280;65248;55.686;37.678;2023-01-05T13:29:54;98780.19;;;-7.24;75.17
76416;BME280;65248;55.686;37.678;2023-01-05T13:40:26;98814.34;;;-7.49;73.88
76416;BME280;65248;55.686;37.678;2023-01-05T13:48:54;98812.03;;;-7.75;74.19
76416;BME280;65248;55.686;37.678;2023-01-05T13:53:50;98808.28;;;-7.93;74.70
76416;BME280;65248;55.686;37.678;2023-01-05T13:56:27;98807.09;;;-8.00;74.65
76416;BME280;65248;55.686;37.678;2023-01-05T13:59:03;98809.78;;;-8.01;74.92
76416;BME280;65248;55.686;37.678;2023-01-05T14:01:35;98783.72;;;-8.33;74.91
76416;BME280;65248;55.686;37.678;2023-01-05T14:04:01;98790.06;;;-8.26;75.63
76416;BME280;65248;55.686;37.678;2023-01-05T14:06:33;98796.19;;;-8.27;75.20
76416;BME280;65248;55.686;37.678;2023-01-05T14:11:28;98790.78;;;-8.46;77.56
76416;BME280;65248;55.686;37.678;2023-01-05T14:13:58;98818.56;;;-8.36;76.39
76416;BME280;65248;55.686;37.678;2023-01-05T14:19:21;98820.56;;;-8.39;77.21
76416;BME280;65248;55.686;37.678;2023-01-05T14:27:21;98833.06;;;-8.44;78.32
76416;BME280;65248;55.686;37.678;2023-01-05T14:32:34;98831.09;;;-8.41;78.23
76416;BME280;65248;55.686;37.678;2023-01-05T14:35:18;98836.63;;;-8.45;77.05
76416;BME280;65248;55.686;37.678;2023-01-05T14:37:57;98823.81;;;-8.60;77.30
76416;BME280;65248;55.686;37.678;2023-01-05T14:40:29;98844.97;;;-8.53;77.05
76416;BME280;65248;55.686;37.678;2023-01-05T14:42:55;98838.75;;;-8.50;76.16
76416;BME280;65248;55.686;37.678;2023-01-05T14:45:25;98839.69;;;-8.51;75.95
76416;BME280;65248;55.686;37.678;2023-01-05T14:47:56;98812.94;;;-8.76;76.14
76416;BME280;65248;55.686;37.678;2023-01-05T14:50:36;98844.16;;;-8.53;75.43
76416;BME280;65248;55.686;37.678;2023-01-05T14:53:10;98844.59;;;-8.60;75.89
76416;BME280;65248;55.686;37.678;2023-01-05T14:56:13;98824.16;;;-8.64;76.76
76416;BME280;65248;55.686;37.678;2023-01-05T15:06:23;98849.63;;;-8.45;74.54
76416;BME280;65248;55.686;37.678;2023-01-05T15:14:51;98849.66;;;-8.34;75.26
76416;BME280;65248;55.686;37.678;2023-01-05T15:31:42;98841.09;;;-8.47;75.47
76416;BME280;65248;55.686;37.678;2023-01-05T15:36:52;98854.91;;;-8.47;76.54
76416;BME280;65248;55.686;37.678;2023-01-05T15:39:36;98796.16;;;-8.83;74.89
76416;BME280;65248;55.686;37.678;2023-01-05T15:42:08;98830.63;;;-8.70;74.44